createdAt,value
2023-04-30T00:00:12.162Z,97923.78
2023-04-30T00:02:59.568Z,97940.53
2023-04-30T00:05:27.131Z,97925.91
2023-04-30T00:07:54.377Z,97927.47
2023-04-30T00:10:21.968Z,97926.25
2023-04-30T00:12:49.246Z,97930.56
2023-04-30T00:15:16.892Z,97918.63
2023-04-30T00:17:44.108Z,97924.47
2023-04-30T00:20:12.489Z,97924.31
2023-04-30T00:22:39.898Z,97929.53
2023-04-30T00:25:07.881Z,97934.66
2023-04-30T00:27:35.077Z,97942.31
2023-04-30T00:30:02.890Z,97934.44
2023-04-30T00:32:30.252Z,97938.31
2023-04-30T00:34:57.781Z,97943.06
2023-04-30T00:37:25.047Z,97940.00
2023-04-30T00:39:53.031Z,97948.22
2023-04-30T00:42:20.564Z,97945.47
2023-04-30T00:44:48.178Z,97939.91
2023-04-30T00:47:15.513Z,97947.44
2023-04-30T00:49:43.261Z,97943.38
2023-04-30T00:52:10.803Z,97949.00
2023-04-30T00:54:38.456Z,97948.66
2023-04-30T00:57:09.853Z,97946.16
2023-04-30T00:59:38.726Z,97941.56
2023-04-30T01:02:06.228Z,97952.38
2023-04-30T01:04:34.665Z,97954.16
2023-04-30T01:07:03.484Z,97949.63
2023-04-30T01:09:31.773Z,97953.19
2023-04-30T01:12:52.513Z,97953.63
2023-04-30T01:16:04.259Z,97952.97
2023-04-30T01:19:14.213Z,97961.53
2023-04-30T01:21:43.764Z,97957.38
2023-04-30T01:24:38.908Z,97961.19
2023-04-30T01:27:49.505Z,97960.81
2023-04-30T01:30:19.277Z,97964.16
2023-04-30T01:32:46.882Z,97962.75
2023-04-30T01:35:14.182Z,97967.47
2023-04-30T01:38:01.123Z,97961.53
2023-04-30T01:41:02.051Z,97962.75
2023-04-30T01:44:07.563Z,97964.97
2023-04-30T01:46:35.636Z,97968.56
2023-04-30T01:49:30.395Z,97969.38
2023-04-30T01:52:19.285Z,97975.34
2023-04-30T01:54:59.438Z,97967.94
2023-04-30T01:57:42.974Z,97973.66
2023-04-30T02:00:12.153Z,97971.25
2023-04-30T02:02:39.586Z,97979.59
2023-04-30T02:05:07.929Z,97974.22
2023-04-30T02:07:43.961Z,97982.78
2023-04-30T02:10:12.655Z,97984.69
2023-04-30T02:12:40.940Z,97979.38
2023-04-30T02:15:09.879Z,97981.03
2023-04-30T02:17:37.275Z,97983.19
2023-04-30T02:20:05.768Z,97991.06
2023-04-30T02:22:33.189Z,97989.13
2023-04-30T02:25:00.841Z,97987.19
2023-04-30T02:27:32.465Z,97982.69
2023-04-30T02:30:01.169Z,97985.44
2023-04-30T02:32:28.754Z,97996.16
2023-04-30T02:34:56.975Z,97997.47
2023-04-30T02:37:24.778Z,97995.53
2023-04-30T02:39:54.070Z,97994.00
2023-04-30T02:42:21.794Z,97988.97
2023-04-30T02:44:49.411Z,97994.47
2023-04-30T02:47:16.730Z,97999.47
2023-04-30T02:49:44.422Z,97995.69
2023-04-30T02:52:11.725Z,98002.38
2023-04-30T02:54:39.443Z,97999.50
2023-04-30T02:57:07.451Z,98005.94
2023-04-30T02:59:35.072Z,98017.00
2023-04-30T03:02:02.269Z,98022.25
2023-04-30T03:04:29.936Z,98025.31
2023-04-30T03:06:57.201Z,98039.88
2023-04-30T03:09:24.913Z,98050.78
2023-04-30T03:11:52.198Z,98046.38
2023-04-30T03:14:19.820Z,98056.34
2023-04-30T03:16:47.205Z,98060.38
2023-04-30T03:19:15.038Z,98074.06
2023-04-30T03:21:42.302Z,98072.63
2023-04-30T03:24:09.846Z,98083.06
2023-04-30T03:26:37.212Z,98082.22
2023-04-30T03:29:04.851Z,98090.28
2023-04-30T03:31:32.547Z,98095.59
2023-04-30T03:34:00.458Z,98091.41
2023-04-30T03:36:27.837Z,98099.91
2023-04-30T03:38:55.535Z,98100.75
2023-04-30T03:41:24.377Z,98101.84
2023-04-30T03:43:52.052Z,98109.25
2023-04-30T03:46:19.559Z,98113.06
2023-04-30T03:48:47.253Z,98121.50
2023-04-30T03:51:14.564Z,98125.47
2023-04-30T03:53:42.197Z,98120.38
2023-04-30T03:56:09.677Z,98126.63
2023-04-30T03:58:37.550Z,98132.13
2023-04-30T04:01:05.617Z,98136.78
2023-04-30T04:03:35.875Z,98137.81
2023-04-30T04:06:04.923Z,98138.09
2023-04-30T04:08:32.964Z,98143.50
2023-04-30T04:11:00.395Z,98154.44
2023-04-30T04:13:27.947Z,98149.72
2023-04-30T04:15:55.424Z,98158.06
2023-04-30T04:18:22.976Z,98152.84
2023-04-30T04:20:50.298Z,98153.38
2023-04-30T04:23:17.985Z,98159.00
2023-04-30T04:25:47.323Z,98166.63
2023-04-30T04:28:14.979Z,98163.91
2023-04-30T04:30:42.492Z,98162.91
2023-04-30T04:33:11.598Z,98166.78
2023-04-30T04:35:38.940Z,98167.22
2023-04-30T04:38:06.660Z,98180.38
2023-04-30T04:40:35.604Z,98174.28
2023-04-30T04:43:03.344Z,98186.28
2023-04-30T04:45:31.590Z,98190.94
2023-04-30T04:47:59.281Z,98191.03
2023-04-30T04:50:26.626Z,98199.34
2023-04-30T04:52:54.208Z,98192.47
2023-04-30T04:55:21.608Z,98201.09
2023-04-30T04:57:49.283Z,98200.38
2023-04-30T05:00:17.995Z,98202.88
2023-04-30T05:02:45.660Z,98208.94
2023-04-30T05:05:13.022Z,98208.69
2023-04-30T05:07:41.465Z,98211.44
2023-04-30T05:10:09.597Z,98217.72
2023-04-30T05:12:37.260Z,98218.34
2023-04-30T05:15:04.945Z,98224.91
2023-04-30T05:17:32.594Z,98238.44
2023-04-30T05:19:59.886Z,98237.38
2023-04-30T05:22:27.494Z,98241.16
2023-04-30T05:24:54.814Z,98246.66
2023-04-30T05:27:22.459Z,98248.25
2023-04-30T05:29:49.769Z,98250.41
2023-04-30T05:32:17.488Z,98253.56
2023-04-30T05:34:44.841Z,98253.88
2023-04-30T05:37:14.514Z,98256.06
2023-04-30T05:39:41.854Z,98256.13
2023-04-30T05:42:09.423Z,98254.09
2023-04-30T05:44:36.719Z,98262.53
2023-04-30T05:47:04.449Z,98265.88
2023-04-30T05:49:33.286Z,98269.22
2023-04-30T05:52:03.805Z,98272.22
2023-04-30T05:54:32.066Z,98276.78
2023-04-30T05:56:59.986Z,98276.22
2023-04-30T05:59:27.271Z,98278.22
2023-04-30T06:01:54.920Z,98276.94
2023-04-30T06:04:22.184Z,98278.34
2023-04-30T06:06:49.819Z,98290.38
2023-04-30T06:09:17.129Z,98276.56
2023-04-30T06:11:49.155Z,98277.38
2023-04-30T06:14:18.244Z,98276.38
2023-04-30T06:16:46.258Z,98279.31
2023-04-30T06:19:13.565Z,98288.94
2023-04-30T06:21:43.606Z,98287.88
2023-04-30T06:24:11.073Z,98290.16
2023-04-30T06:26:39.071Z,98299.94
2023-04-30T06:29:06.464Z,98299.25
2023-04-30T06:31:34.220Z,98289.22
2023-04-30T06:34:01.499Z,98291.13
2023-04-30T06:36:29.147Z,98299.41
2023-04-30T06:38:56.411Z,98294.41
2023-04-30T06:41:23.955Z,98297.03
2023-04-30T06:43:51.388Z,98306.34
2023-04-30T06:46:19.081Z,98301.72
2023-04-30T06:48:46.396Z,98316.63
2023-04-30T06:51:14.860Z,98318.41
2023-04-30T06:53:42.483Z,98321.41
2023-04-30T06:56:10.004Z,98312.75
2023-04-30T06:58:37.316Z,98318.31
2023-04-30T07:01:05.064Z,98330.47
2023-04-30T07:03:33.831Z,98322.94
2023-04-30T07:06:01.871Z,98332.16
2023-04-30T07:08:29.309Z,98330.22
2023-04-30T07:10:57.334Z,98336.28
2023-04-30T07:13:24.662Z,98325.97
2023-04-30T07:15:52.944Z,98325.69
2023-04-30T07:18:20.639Z,98331.25
2023-04-30T07:20:48.218Z,98326.25
2023-04-30T07:23:15.723Z,98322.56
2023-04-30T07:25:43.495Z,98323.28
2023-04-30T07:28:11.118Z,98324.69
2023-04-30T07:30:41.082Z,98330.34
2023-04-30T07:33:09.862Z,98327.34
2023-04-30T07:35:37.548Z,98333.75
2023-04-30T07:38:05.992Z,98338.06
2023-04-30T07:40:36.189Z,98340.75
2023-04-30T07:43:05.252Z,98349.19
2023-04-30T07:45:34.083Z,98335.53
2023-04-30T07:48:02.391Z,98350.22
2023-04-30T07:50:34.087Z,98350.75
2023-04-30T07:53:02.742Z,98356.53
2023-04-30T07:55:31.337Z,98349.81
2023-04-30T07:57:59.804Z,98351.88
2023-04-30T08:00:29.728Z,98356.38
2023-04-30T08:02:59.250Z,98362.44
2023-04-30T08:05:28.251Z,98358.97
2023-04-30T08:07:56.394Z,98360.88
2023-04-30T08:10:25.400Z,98361.66
2023-04-30T08:12:53.255Z,98363.22
2023-04-30T08:15:22.044Z,98355.63
2023-04-30T08:17:51.354Z,98363.88
2023-04-30T08:20:19.454Z,98367.72
2023-04-30T08:22:47.507Z,98377.69
2023-04-30T08:25:15.176Z,98373.47
2023-04-30T08:27:42.552Z,98376.84
2023-04-30T08:30:11.088Z,98372.25
2023-04-30T08:32:38.540Z,98369.91
2023-04-30T08:35:07.348Z,98362.03
2023-04-30T08:37:34.919Z,98354.66
2023-04-30T08:40:02.583Z,98361.00
2023-04-30T08:42:37.627Z,98370.91
2023-04-30T08:45:08.883Z,98371.50
2023-04-30T08:47:37.519Z,98370.53
2023-04-30T08:50:06.948Z,98374.81
2023-04-30T08:52:37.421Z,98369.78
2023-04-30T08:55:08.981Z,98368.88
2023-04-30T08:57:38.407Z,98369.22
2023-04-30T09:00:07.533Z,98369.50
2023-04-30T09:02:39.374Z,98372.63
2023-04-30T09:05:13.926Z,98372.25
2023-04-30T09:08:01.143Z,98378.59
2023-04-30T09:10:33.386Z,98367.41
2023-04-30T09:13:08.201Z,98378.50
2023-04-30T09:15:41.487Z,98378.34
2023-04-30T09:18:17.797Z,98372.31
2023-04-30T09:21:03.382Z,98382.44
2023-04-30T09:23:31.157Z,98402.41
2023-04-30T09:25:59.674Z,98394.75
2023-04-30T09:28:29.023Z,98416.44
2023-04-30T09:30:58.067Z,98402.72
2023-04-30T09:33:25.465Z,98416.22
2023-04-30T09:35:53.230Z,98419.06
2023-04-30T09:38:28.202Z,98412.72
2023-04-30T09:40:58.187Z,98411.81
2023-04-30T09:43:25.965Z,98403.38
2023-04-30T09:45:53.826Z,98410.59
2023-04-30T09:48:28.262Z,98401.28
2023-04-30T09:50:56.401Z,98403.66
2023-04-30T09:53:24.362Z,98398.41
2023-04-30T09:55:52.892Z,98401.25
2023-04-30T09:58:20.586Z,98394.41
2023-04-30T10:00:54.467Z,98386.53
2023-04-30T10:03:24.204Z,98379.84
2023-04-30T10:05:53.266Z,98389.84
2023-04-30T10:08:36.438Z,98390.44
2023-04-30T10:11:07.294Z,98404.06
2023-04-30T10:13:58.833Z,98392.41
2023-04-30T10:17:05.000Z,98401.75
2023-04-30T10:19:36.656Z,98364.72
2023-04-30T10:22:05.248Z,98358.34
2023-04-30T10:24:32.536Z,98350.56
2023-04-30T10:27:00.180Z,98356.41
2023-04-30T10:29:27.443Z,98360.66
2023-04-30T10:31:56.649Z,98336.88
2023-04-30T10:34:58.837Z,98324.97
2023-04-30T10:37:46.726Z,98339.44
2023-04-30T10:40:15.070Z,98336.34
2023-04-30T10:42:50.462Z,98326.94
2023-04-30T10:45:17.977Z,98344.50
2023-04-30T10:47:46.252Z,98327.00
2023-04-30T10:50:14.031Z,98341.69
2023-04-30T10:52:41.816Z,98327.19
2023-04-30T10:55:10.300Z,98323.16
2023-04-30T10:57:46.737Z,98310.41
2023-04-30T11:00:16.545Z,98300.84
2023-04-30T11:02:47.465Z,98302.06
2023-04-30T11:05:18.491Z,98289.63
2023-04-30T11:07:57.452Z,98292.75
2023-04-30T11:10:28.613Z,98300.63
2023-04-30T11:12:56.403Z,98289.81
2023-04-30T11:15:44.306Z,98294.03
2023-04-30T11:18:14.449Z,98291.94
2023-04-30T11:20:51.051Z,98298.16
2023-04-30T11:23:32.222Z,98292.91
2023-04-30T11:26:08.145Z,98292.28
2023-04-30T11:28:38.329Z,98301.28
2023-04-30T11:31:06.206Z,98300.06
2023-04-30T11:33:34.927Z,98307.13
2023-04-30T11:36:02.780Z,98300.75
2023-04-30T11:38:35.640Z,98289.69
2023-04-30T11:41:04.794Z,98303.84
2023-04-30T11:43:34.817Z,98301.09
2023-04-30T11:46:15.499Z,98314.97
2023-04-30T11:48:46.646Z,98305.56
2023-04-30T11:51:25.310Z,98311.72
2023-04-30T11:53:54.136Z,98305.22
2023-04-30T11:56:25.454Z,98302.72
2023-04-30T11:58:56.058Z,98300.41
2023-04-30T12:01:28.649Z,98309.28
2023-04-30T12:03:57.705Z,98316.25
2023-04-30T12:06:29.341Z,98316.38
2023-04-30T12:09:01.657Z,98313.31
2023-04-30T12:11:32.351Z,98304.72
2023-04-30T12:14:10.917Z,98298.91
2023-04-30T12:16:48.395Z,98309.03
2023-04-30T12:19:25.399Z,98307.81
2023-04-30T12:21:55.213Z,98303.47
2023-04-30T12:24:27.149Z,98298.53
2023-04-30T12:26:54.813Z,98286.81
2023-04-30T12:29:23.112Z,98300.50
2023-04-30T12:31:53.594Z,98284.97
2023-04-30T12:34:21.244Z,98289.41
2023-04-30T12:36:48.559Z,98289.34
2023-04-30T12:39:16.636Z,98290.91
2023-04-30T12:41:50.056Z,98292.47
2023-04-30T12:44:27.724Z,98281.16
2023-04-30T12:46:57.807Z,98284.63
2023-04-30T12:49:31.053Z,98286.38
2023-04-30T12:52:11.527Z,98281.97
2023-04-30T12:54:40.514Z,98273.56
2023-04-30T12:57:13.156Z,98268.66
2023-04-30T12:59:53.392Z,98272.47
2023-04-30T13:02:25.614Z,98278.63
2023-04-30T13:04:54.647Z,98269.72
2023-04-30T13:07:22.215Z,98265.22
2023-04-30T13:09:49.851Z,98268.53
2023-04-30T13:12:17.413Z,98273.19
2023-04-30T13:14:45.014Z,98266.91
2023-04-30T13:17:13.982Z,98267.75
2023-04-30T13:19:42.120Z,98256.06
2023-04-30T13:22:09.525Z,98253.69
2023-04-30T13:24:37.490Z,98249.53
2023-04-30T13:27:05.029Z,98259.19
2023-04-30T13:29:32.928Z,98252.84
2023-04-30T13:32:00.290Z,98254.03
2023-04-30T13:34:28.137Z,98251.91
2023-04-30T13:36:55.530Z,98258.06
2023-04-30T13:39:23.264Z,98255.59
2023-04-30T13:41:50.746Z,98257.97
2023-04-30T13:44:18.731Z,98262.31
2023-04-30T13:46:46.196Z,98270.63
2023-04-30T13:49:13.875Z,98272.72
2023-04-30T13:51:41.360Z,98265.63
2023-04-30T13:54:09.108Z,98258.84
2023-04-30T13:56:36.439Z,98267.72
2023-04-30T13:59:04.223Z,98260.19
2023-04-30T14:01:33.090Z,98260.66
2023-04-30T14:04:02.125Z,98250.50
2023-04-30T14:06:29.808Z,98273.91
2023-04-30T14:08:57.438Z,98265.38
2023-04-30T14:11:24.909Z,98262.41
2023-04-30T14:13:52.743Z,98266.94
2023-04-30T14:16:21.005Z,98259.22
2023-04-30T14:18:48.675Z,98265.22
2023-04-30T14:21:16.096Z,98253.25
2023-04-30T14:23:46.593Z,98258.09
2023-04-30T14:26:15.024Z,98263.53
2023-04-30T14:28:42.651Z,98265.38
2023-04-30T14:31:10.712Z,98267.78
2023-04-30T14:33:38.369Z,98272.78
2023-04-30T14:36:07.716Z,98268.31
2023-04-30T14:38:35.413Z,98269.50
2023-04-30T14:41:02.673Z,98270.13
2023-04-30T14:43:31.274Z,98270.94
2023-04-30T14:45:58.630Z,98272.72
2023-04-30T14:48:26.292Z,98268.84
2023-04-30T14:50:53.588Z,98268.69
2023-04-30T14:53:21.305Z,98268.56
2023-04-30T14:55:48.950Z,98264.56
2023-04-30T14:58:16.499Z,98269.28
2023-04-30T15:00:43.750Z,98265.94
2023-04-30T15:03:11.313Z,98270.44
2023-04-30T15:05:38.623Z,98270.75
2023-04-30T15:08:06.779Z,98273.00
2023-04-30T15:10:34.071Z,98268.25
2023-04-30T15:13:03.803Z,98269.88
2023-04-30T15:15:31.215Z,98278.72
2023-04-30T15:18:04.024Z,98273.97
2023-04-30T15:20:31.976Z,98278.41
2023-04-30T15:23:00.144Z,98275.97
2023-04-30T15:25:27.761Z,98278.50
2023-04-30T15:27:55.570Z,98268.66
2023-04-30T15:30:23.069Z,98270.03
2023-04-30T15:32:50.983Z,98269.06
2023-04-30T15:35:18.476Z,98275.22
2023-04-30T15:37:46.072Z,98276.56
2023-04-30T15:40:15.710Z,98284.03
2023-04-30T15:42:43.765Z,98276.41
2023-04-30T15:45:11.269Z,98277.72
2023-04-30T15:47:39.415Z,98282.72
2023-04-30T15:50:08.021Z,98276.41
2023-04-30T15:52:37.537Z,98277.75
2023-04-30T15:55:07.048Z,98282.22
2023-04-30T15:57:34.585Z,98279.38
2023-04-30T16:00:01.855Z,98283.88
2023-04-30T16:02:30.317Z,98280.06
2023-04-30T16:04:57.683Z,98277.88
2023-04-30T16:07:25.373Z,98280.19
2023-04-30T16:09:53.653Z,98278.34
2023-04-30T16:12:21.728Z,98272.38
2023-04-30T16:14:48.934Z,98282.91
2023-04-30T16:17:16.533Z,98279.56
2023-04-30T16:19:43.950Z,98270.00
2023-04-30T16:22:12.426Z,98280.72
2023-04-30T16:24:39.752Z,98278.41
2023-04-30T16:27:08.480Z,98274.47
2023-04-30T16:29:35.803Z,98269.66
2023-04-30T16:32:03.413Z,98277.22
2023-04-30T16:34:30.717Z,98278.94
2023-04-30T16:36:58.260Z,98274.31
2023-04-30T16:39:25.539Z,98273.19
2023-04-30T16:41:53.139Z,98279.47
2023-04-30T16:44:20.747Z,98276.50
2023-04-30T16:46:49.170Z,98276.91
2023-04-30T16:49:16.965Z,98273.44
2023-04-30T16:51:44.525Z,98275.75
2023-04-30T16:54:11.862Z,98277.69
2023-04-30T16:56:39.416Z,98282.53
2023-04-30T16:59:06.833Z,98286.94
2023-04-30T17:01:34.746Z,98287.81
2023-04-30T17:04:02.261Z,98289.22
2023-04-30T17:06:30.160Z,98293.97
2023-04-30T17:08:57.567Z,98299.44
2023-04-30T17:11:25.359Z,98302.56
2023-04-30T17:13:54.607Z,98304.31
2023-04-30T17:16:22.370Z,98308.38
2023-04-30T17:18:49.699Z,98309.50
2023-04-30T17:21:17.391Z,98313.25
2023-04-30T17:23:44.852Z,98322.78
2023-04-30T17:26:12.382Z,98321.38
2023-04-30T17:28:39.774Z,98324.78
2023-04-30T17:31:09.458Z,98329.44
2023-04-30T17:33:36.815Z,98327.38
2023-04-30T17:36:04.716Z,98330.47
2023-04-30T17:38:32.359Z,98339.16
2023-04-30T17:41:00.007Z,98336.41
2023-04-30T17:43:27.749Z,98340.91
2023-04-30T17:45:56.376Z,98340.78
2023-04-30T17:48:23.872Z,98345.69
2023-04-30T17:50:51.628Z,98344.03
2023-04-30T17:53:18.997Z,98350.31
2023-04-30T17:55:46.719Z,98350.19
2023-04-30T17:58:14.145Z,98357.72
2023-04-30T18:00:43.579Z,98360.94
2023-04-30T18:03:11.388Z,98366.31
2023-04-30T18:05:39.700Z,98362.63
2023-04-30T18:08:06.967Z,98363.16
2023-04-30T18:10:34.730Z,98361.44
2023-04-30T18:13:02.324Z,98362.84
2023-04-30T18:15:30.143Z,98362.38
2023-04-30T18:17:59.381Z,98359.06
2023-04-30T18:20:28.128Z,98359.03
2023-04-30T18:22:55.333Z,98370.50
2023-04-30T18:25:23.007Z,98361.81
2023-04-30T18:27:50.296Z,98373.59
2023-04-30T18:30:17.936Z,98372.06
2023-04-30T18:32:45.234Z,98378.16
2023-04-30T18:35:12.924Z,98382.69
2023-04-30T18:37:40.657Z,98380.84
2023-04-30T18:40:09.167Z,98389.28
2023-04-30T18:42:38.579Z,98385.47
2023-04-30T18:45:06.844Z,98387.75
2023-04-30T18:47:34.224Z,98387.19
2023-04-30T18:50:02.130Z,98393.66
2023-04-30T18:52:29.461Z,98394.91
2023-04-30T18:54:57.104Z,98388.34
2023-04-30T18:57:24.436Z,98390.41
2023-04-30T18:59:52.060Z,98397.59
2023-04-30T19:02:19.833Z,98395.91
2023-04-30T19:04:48.489Z,98407.63
2023-04-30T19:07:15.760Z,98405.50
2023-04-30T19:09:45.273Z,98396.47
2023-04-30T19:12:15.083Z,98404.16
2023-04-30T19:14:43.340Z,98408.94
2023-04-30T19:17:12.586Z,98405.94
2023-04-30T19:19:40.565Z,98414.09
2023-04-30T19:22:07.973Z,98410.28
2023-04-30T19:24:36.094Z,98411.38
2023-04-30T19:27:04.385Z,98409.00
2023-04-30T19:29:32.567Z,98408.78
2023-04-30T19:32:00.215Z,98420.47
2023-04-30T19:34:27.938Z,98416.66
2023-04-30T19:36:55.484Z,98419.78
2023-04-30T19:39:23.380Z,98423.59
2023-04-30T19:41:50.835Z,98425.13
2023-04-30T19:44:20.030Z,98428.94
2023-04-30T19:46:48.131Z,98420.94
2023-04-30T19:49:16.395Z,98426.69
2023-04-30T19:51:43.719Z,98427.88
2023-04-30T19:54:14.398Z,98434.31
2023-04-30T19:56:42.159Z,98426.56
2023-04-30T19:59:10.627Z,98431.34
2023-04-30T20:01:38.749Z,98428.94
2023-04-30T20:04:07.123Z,98430.72
2023-04-30T20:06:34.564Z,98427.72
2023-04-30T20:09:02.669Z,98445.38
2023-04-30T20:11:30.060Z,98433.34
2023-04-30T20:13:57.789Z,98440.50
2023-04-30T20:16:25.436Z,98438.19
2023-04-30T20:18:53.164Z,98440.13
2023-04-30T20:21:21.492Z,98434.38
2023-04-30T20:23:49.123Z,98440.56
2023-04-30T20:26:17.071Z,98433.88
2023-04-30T20:28:44.849Z,98438.72
2023-04-30T20:31:12.182Z,98439.19
2023-04-30T20:33:41.364Z,98448.22
2023-04-30T20:36:08.741Z,98444.16
2023-04-30T20:38:36.448Z,98440.28
2023-04-30T20:41:10.297Z,98431.94
2023-04-30T20:43:38.145Z,98426.72
2023-04-30T20:46:05.527Z,98430.69
2023-04-30T20:48:33.085Z,98433.66
2023-04-30T20:51:00.698Z,98429.69
2023-04-30T20:53:28.228Z,98429.09
2023-04-30T20:56:00.312Z,98437.28
2023-04-30T20:58:28.890Z,98441.91
2023-04-30T21:00:56.845Z,98437.94
2023-04-30T21:03:24.956Z,98439.59
2023-04-30T21:05:52.382Z,98439.97
2023-04-30T21:08:19.984Z,98447.19
2023-04-30T21:10:47.261Z,98447.41
2023-04-30T21:13:15.131Z,98452.78
2023-04-30T21:15:44.165Z,98453.06
2023-04-30T21:18:11.768Z,98451.63
2023-04-30T21:20:39.152Z,98454.44
2023-04-30T21:23:06.833Z,98459.09
2023-04-30T21:25:38.295Z,98455.84
2023-04-30T21:28:06.547Z,98458.66
2023-04-30T21:30:35.663Z,98465.50
2023-04-30T21:33:04.068Z,98464.06
2023-04-30T21:35:33.154Z,98465.91
2023-04-30T21:38:01.023Z,98463.63
2023-04-30T21:40:32.173Z,98474.31
2023-04-30T21:43:01.511Z,98470.44
2023-04-30T21:45:28.792Z,98473.59
2023-04-30T21:47:56.564Z,98474.75
2023-04-30T21:50:24.158Z,98477.69
2023-04-30T21:52:53.037Z,98481.75
2023-04-30T21:55:20.788Z,98483.09
2023-04-30T21:57:51.323Z,98486.16
2023-04-30T22:00:18.947Z,98491.69
2023-04-30T22:02:47.718Z,98494.59
2023-04-30T22:05:15.403Z,98492.88
2023-04-30T22:07:43.188Z,98498.53
2023-04-30T22:10:11.061Z,98494.25
2023-04-30T22:12:38.722Z,98493.31
2023-04-30T22:15:07.150Z,98492.88
2023-04-30T22:17:34.788Z,98490.03
2023-04-30T22:20:02.152Z,98505.16
2023-04-30T22:22:29.721Z,98506.31
2023-04-30T22:24:57.119Z,98504.09
2023-04-30T22:27:25.084Z,98506.56
2023-04-30T22:29:52.374Z,98507.88
2023-04-30T22:32:19.917Z,98499.59
2023-04-30T22:34:47.292Z,98511.19
2023-04-30T22:37:14.833Z,98501.22
2023-04-30T22:39:42.632Z,98507.75
2023-04-30T22:42:10.921Z,98508.69
2023-04-30T22:44:38.304Z,98519.03
2023-04-30T22:47:06.553Z,98514.69
2023-04-30T22:49:35.749Z,98512.97
2023-04-30T22:52:04.294Z,98509.47
2023-04-30T22:54:31.712Z,98517.00
2023-04-30T22:56:59.862Z,98517.22
2023-04-30T22:59:27.214Z,98516.75
2023-04-30T23:01:54.848Z,98516.75
2023-04-30T23:04:22.777Z,98516.94
2023-04-30T23:06:50.527Z,98513.41
2023-04-30T23:09:17.882Z,98517.88
2023-04-30T23:11:45.853Z,98516.38
2023-04-30T23:14:13.113Z,98517.72
2023-04-30T23:16:42.758Z,98521.44
2023-04-30T23:19:10.785Z,98521.72
2023-04-30T23:21:38.632Z,98520.94
2023-04-30T23:24:06.048Z,98520.31
2023-04-30T23:26:33.712Z,98521.72
2023-04-30T23:29:01.090Z,98519.56
2023-04-30T23:31:28.829Z,98522.06
2023-04-30T23:33:56.438Z,98516.84
2023-04-30T23:36:24.019Z,98529.25
2023-04-30T23:38:51.424Z,98527.47
2023-04-30T23:41:19.035Z,98531.38
2023-04-30T23:43:46.273Z,98525.16
2023-04-30T23:46:16.094Z,98522.88
2023-04-30T23:48:43.400Z,98516.34
2023-04-30T23:51:11.031Z,98521.00
2023-04-30T23:53:38.260Z,98523.78
2023-04-30T23:56:06.180Z,98530.75
2023-04-30T23:58:33.539Z,98524.16
